TimeEDT,TemperatureF,Dew PointF,Humidity,Sea Level PressureIn,VisibilityMPH,Wind Direction,Wind SpeedMPH,Gust SpeedMPH,PrecipitationIn,Events,Conditions,WindDirDegrees,DateUTC
12:53 AM,64.0,52.0,65,30.04,10.0,SSW,8.1,-,N/A,,Overcast,210,2012-10-23 04:53:00
2:53 AM,60.1,55.0,83,30.03,10.0,SE,6.9,-,0.00,,Overcast,140,2012-10-23 06:53:00
3:53 AM,59.0,54.0,83,30.02,9.0,SE,10.4,-,0.01,Rain,Light Rain,140,2012-10-23 07:53:00
4:53 AM,60.1,53.1,78,30.01,10.0,South,8.1,-,0.00,,Overcast,180,2012-10-23 08:53:00
5:53 AM,60.1,53.1,78,30.01,10.0,South,9.2,-,N/A,,Overcast,180,2012-10-23 09:53:00
6:53 AM,60.1,51.1,72,30.00,10.0,South,11.5,-,0.00,Rain,Light Rain,190,2012-10-23 10:53:00
7:53 AM,61.0,53.1,75,30.01,10.0,SW,9.2,-,0.00,,Overcast,220,2012-10-23 11:53:00
8:53 AM,63.0,52.0,67,30.01,10.0,SSW,10.4,-,N/A,,Overcast,200,2012-10-23 12:53:00
9:53 AM,63.0,52.0,67,30.03,10.0,SW,12.7,-,N/A,,Overcast,220,2012-10-23 13:53:00
10:53 AM,64.0,52.0,65,30.05,10.0,WSW,19.6,29.9,0.00,Rain,Light Rain,240,2012-10-23 14:53:00
11:30 AM,60.8,53.6,77,30.06,1.5,WSW,13.8,20.7,0.00,Rain,Heavy Rain,250,2012-10-23 15:30:00
11:50 AM,59.0,55.4,88,30.08,1.2,WNW,8.1,-,N/A,Rain,Rain,290,2012-10-23 15:50:00
11:53 AM,59.0,55.9,90,30.09,1.0,WNW,6.9,-,N/A,Rain,Rain,290,2012-10-23 15:53:00
12:03 PM,59.0,55.4,88,30.09,3.0,WSW,3.5,-,N/A,Rain,Light Rain,240,2012-10-23 16:03:00
12:53 PM,61.0,57.0,87,30.07,10.0,SW,10.4,-,N/A,,Overcast,220,2012-10-23 16:53:00
1:40 PM,64.4,60.8,88,30.04,10.0,SW,12.7,-,N/A,,Scattered Clouds,220,2012-10-23 17:40:00
1:53 PM,64.9,59.0,81,30.04,10.0,SW,12.7,-,N/A,,Scattered Clouds,230,2012-10-23 17:53:00
2:53 PM,66.0,57.0,73,30.01,10.0,SSW,15.0,-,N/A,,Clear,210,2012-10-23 18:53:00
3:53 PM,68.0,55.0,63,29.99,10.0,SSW,13.8,-,N/A,,Clear,200,2012-10-23 19:53:00
4:53 PM,68.0,54.0,61,29.99,10.0,SSW,11.5,-,N/A,,Clear,200,2012-10-23 20:53:00
5:53 PM,66.9,55.0,66,30.00,10.0,SSW,5.8,-,N/A,,Clear,210,2012-10-23 21:53:00
7:53 PM,60.1,53.1,78,30.02,10.0,SSE,4.6,-,N/A,,Clear,160,2012-10-23 23:53:00
8:53 PM,62.1,54.0,75,30.03,10.0,SSE,5.8,-,0.01,,Overcast,160,2012-10-24 00:53:00
9:53 PM,62.1,54.0,75,30.04,9.0,South,5.8,-,N/A,,Overcast,190,2012-10-24 01:53:00
10:53 PM,60.1,51.1,72,30.04,10.0,South,6.9,-,N/A,,Partly Cloudy,190,2012-10-24 02:53:00
11:53 PM,63.0,51.1,65,30.05,10.0,SW,6.9,-,N/A,,Overcast,220,2012-10-24 03:53:00